createdAt,value
2022-10-07T00:00:00.402Z,0.0
2022-10-07T00:05:00.349Z,0.0
2022-10-07T00:10:00.377Z,0.0
2022-10-07T00:15:00.375Z,0.0
2022-10-07T00:20:02.131Z,0.0
2022-10-07T00:25:00.349Z,0.0
2022-10-07T00:30:00.438Z,0.0
2022-10-07T00:35:00.376Z,0.0
2022-10-07T00:40:00.362Z,0.0
2022-10-07T00:45:00.300Z,0.0
2022-10-07T00:50:00.289Z,0.0
2022-10-07T00:55:00.255Z,0.0
2022-10-07T01:00:00.301Z,0.0
2022-10-07T01:05:00.243Z,0.1
2022-10-07T01:10:00.260Z,0.0
2022-10-07T01:15:00.261Z,0.0
2022-10-07T01:20:00.288Z,0.0
2022-10-07T01:25:00.249Z,0.0
2022-10-07T01:30:00.291Z,0.1
2022-10-07T01:35:00.228Z,0.0
2022-10-07T01:40:00.313Z,0.0
2022-10-07T01:45:00.273Z,0.0
2022-10-07T01:50:00.285Z,0.0
2022-10-07T01:55:00.258Z,0.9
2022-10-07T02:00:00.290Z,0.0
2022-10-07T02:05:00.254Z,1.6
2022-10-07T02:10:00.247Z,0.1
2022-10-07T02:15:00.256Z,1.2
2022-10-07T02:20:00.383Z,0.0
2022-10-07T02:25:00.249Z,0.0
2022-10-07T02:30:00.289Z,0.0
2022-10-07T02:35:00.249Z,0.0
2022-10-07T02:40:00.278Z,0.2
2022-10-07T02:45:00.296Z,0.0
2022-10-07T02:50:00.258Z,0.1
2022-10-07T02:55:00.242Z,0.0
2022-10-07T03:00:00.293Z,0.1
2022-10-07T03:05:00.236Z,0.5
2022-10-07T03:10:00.254Z,0.3
2022-10-07T03:15:00.293Z,0.0
2022-10-07T03:20:00.267Z,0.1
2022-10-07T03:25:00.288Z,0.0
2022-10-07T03:30:00.535Z,0.0
2022-10-07T03:35:00.254Z,0.4
2022-10-07T03:40:00.273Z,0.0
2022-10-07T03:45:00.284Z,0.0
2022-10-07T03:50:00.263Z,0.0
2022-10-07T03:55:00.254Z,0.0
2022-10-07T04:00:00.371Z,0.0
2022-10-07T04:05:00.240Z,0.0
2022-10-07T04:10:00.261Z,0.0
2022-10-07T04:15:00.265Z,0.0
2022-10-07T04:20:00.323Z,0.0
2022-10-07T04:25:00.240Z,0.0
2022-10-07T04:30:00.304Z,0.0
2022-10-07T04:35:00.409Z,0.0
2022-10-07T04:40:01.469Z,0.0
2022-10-07T04:45:00.290Z,0.0
2022-10-07T04:50:00.265Z,0.0
2022-10-07T04:55:00.275Z,0.0
2022-10-07T05:00:00.316Z,0.0
2022-10-07T05:05:00.265Z,0.0
2022-10-07T05:10:00.257Z,0.0
2022-10-07T05:15:00.275Z,0.0
2022-10-07T05:20:00.250Z,0.0
2022-10-07T05:25:00.248Z,0.0
2022-10-07T05:30:00.602Z,0.0
2022-10-07T05:35:00.232Z,0.0
2022-10-07T05:40:00.289Z,0.0
2022-10-07T05:45:00.335Z,0.0
2022-10-07T05:50:00.246Z,0.0
2022-10-07T05:55:00.230Z,0.0
2022-10-07T06:00:00.302Z,0.0
2022-10-07T06:05:00.215Z,0.0
2022-10-07T06:10:00.265Z,0.0
2022-10-07T06:15:00.249Z,0.0
2022-10-07T06:20:00.247Z,0.0
2022-10-07T06:25:00.240Z,0.0
2022-10-07T06:30:00.273Z,1.1
2022-10-07T06:35:00.232Z,1.2
2022-10-07T06:40:00.372Z,0.3
2022-10-07T06:45:00.265Z,1.1
2022-10-07T06:50:00.278Z,0.6
2022-10-07T06:55:00.238Z,0.4
2022-10-07T07:00:00.300Z,2.6
2022-10-07T07:05:00.257Z,3.9
2022-10-07T07:10:00.320Z,4.7
2022-10-07T07:15:00.348Z,4.0
2022-10-07T07:20:00.265Z,3.8
2022-10-07T07:25:00.258Z,3.6
2022-10-07T07:30:00.290Z,3.6
2022-10-07T07:35:00.286Z,5.3
2022-10-07T07:40:00.273Z,2.1
2022-10-07T07:45:00.261Z,1.2
2022-10-07T07:50:00.299Z,1.9
2022-10-07T07:55:00.291Z,0.5
2022-10-07T08:00:00.307Z,3.5
2022-10-07T08:05:00.295Z,2.8
2022-10-07T08:10:00.275Z,0.6
2022-10-07T08:15:00.378Z,5.1
2022-10-07T08:20:00.262Z,4.4
2022-10-07T08:25:00.332Z,1.8
2022-10-07T08:30:00.355Z,2.1
2022-10-07T08:35:00.269Z,3.1
2022-10-07T08:40:00.258Z,6.5
2022-10-07T08:45:00.275Z,2.6
2022-10-07T08:50:00.260Z,0.8
2022-10-07T09:05:00.278Z,2.1
2022-10-07T09:10:00.287Z,3.0
2022-10-07T09:15:00.246Z,1.7
2022-10-07T09:20:00.258Z,5.6
2022-10-07T09:25:00.277Z,4.9
2022-10-07T09:30:00.307Z,6.9
2022-10-07T09:35:00.290Z,6.0
2022-10-07T09:40:00.265Z,4.5
2022-10-07T09:45:00.282Z,1.7
2022-10-07T09:50:00.276Z,5.8
2022-10-07T09:55:00.247Z,2.9
2022-10-07T10:00:00.298Z,8.1
2022-10-07T10:05:00.253Z,6.1
2022-10-07T10:10:00.277Z,5.9
2022-10-07T10:15:00.309Z,4.5
2022-10-07T10:20:00.298Z,7.3
2022-10-07T10:25:00.254Z,8.8
2022-10-07T10:30:00.290Z,4.5
2022-10-07T10:35:00.273Z,3.9
2022-10-07T10:40:00.273Z,9.1
2022-10-07T10:45:00.284Z,7.8
2022-10-07T10:50:00.274Z,9.7
2022-10-07T10:55:00.284Z,4.7
2022-10-07T11:00:00.289Z,5.6
2022-10-07T11:05:00.237Z,6.1
2022-10-07T11:10:00.397Z,6.0
2022-10-07T11:15:00.269Z,12.6
2022-10-07T11:20:00.559Z,3.7
2022-10-07T11:25:00.286Z,6.2
2022-10-07T11:30:00.285Z,6.3
2022-10-07T11:35:00.277Z,4.2
2022-10-07T11:40:00.296Z,7.5
2022-10-07T11:45:00.274Z,10.3
2022-10-07T11:50:00.339Z,3.5
2022-10-07T11:55:00.272Z,8.8
2022-10-07T12:00:00.266Z,4.3
2022-10-07T12:05:00.257Z,6.4
2022-10-07T12:10:00.260Z,5.0
2022-10-07T12:15:00.278Z,6.4
2022-10-07T12:20:00.324Z,3.5
2022-10-07T12:25:00.266Z,6.2
2022-10-07T12:30:00.335Z,6.3
2022-10-07T12:35:00.297Z,4.7
2022-10-07T12:40:00.294Z,6.9
2022-10-07T12:45:01.970Z,4.2
2022-10-07T12:50:00.292Z,7.9
2022-10-07T12:55:00.280Z,3.6
2022-10-07T13:00:00.272Z,1.6
2022-10-07T13:05:00.236Z,6.0
2022-10-07T13:10:00.285Z,7.2
2022-10-07T13:15:00.256Z,5.2
2022-10-07T13:20:00.250Z,3.7
2022-10-07T13:25:00.290Z,6.1
2022-10-07T13:30:00.606Z,3.8
2022-10-07T13:35:00.418Z,4.8
2022-10-07T13:40:00.409Z,2.3
2022-10-07T13:45:00.248Z,4.5
2022-10-07T13:50:00.448Z,5.6
2022-10-07T13:55:00.287Z,7.9
2022-10-07T14:00:00.542Z,4.3
2022-10-07T14:05:00.279Z,6.2
2022-10-07T14:10:00.692Z,8.9
2022-10-07T14:15:00.274Z,5.4
2022-10-07T14:20:00.313Z,8.4
2022-10-07T14:25:00.229Z,6.9
2022-10-07T14:30:00.290Z,7.5
2022-10-07T14:35:00.258Z,4.4
2022-10-07T14:40:00.360Z,3.3
2022-10-07T14:45:00.256Z,3.9
2022-10-07T14:50:00.299Z,7.0
2022-10-07T14:55:00.263Z,4.3
2022-10-07T15:00:00.300Z,4.3
2022-10-07T15:05:00.477Z,5.8
2022-10-07T15:10:00.340Z,3.3
2022-10-07T15:15:00.304Z,2.9
2022-10-07T15:20:00.276Z,5.2
2022-10-07T15:25:00.279Z,4.5
2022-10-07T15:30:00.336Z,4.1
2022-10-07T15:35:00.252Z,3.0
2022-10-07T15:40:00.284Z,3.7
2022-10-07T15:45:00.284Z,2.4
2022-10-07T15:50:00.268Z,0.7
2022-10-07T15:55:07.551Z,1.0
2022-10-07T16:00:00.344Z,0.5
2022-10-07T16:05:00.420Z,0.0
2022-10-07T16:10:00.291Z,0.3
2022-10-07T16:15:00.284Z,0.0
2022-10-07T16:20:00.264Z,0.0
2022-10-07T16:25:00.248Z,0.0
2022-10-07T16:30:00.331Z,0.0
2022-10-07T16:35:00.264Z,0.0
2022-10-07T16:40:00.267Z,0.0
2022-10-07T16:45:00.313Z,0.0
2022-10-07T16:50:00.281Z,0.0
2022-10-07T16:55:00.241Z,0.0
2022-10-07T17:00:00.275Z,0.0
2022-10-07T17:05:00.238Z,0.0
2022-10-07T17:10:00.383Z,0.0
2022-10-07T17:15:00.250Z,0.0
2022-10-07T17:20:00.314Z,0.0
2022-10-07T17:30:00.286Z,0.0
2022-10-07T17:35:00.241Z,0.0
2022-10-07T17:40:00.306Z,0.0
2022-10-07T17:45:00.323Z,0.0
2022-10-07T17:50:00.284Z,0.0
2022-10-07T17:55:00.231Z,0.0
2022-10-07T18:00:08.460Z,0.0
2022-10-07T18:05:00.389Z,0.0
2022-10-07T18:10:00.269Z,0.0
2022-10-07T18:15:00.259Z,0.0
2022-10-07T18:20:00.271Z,0.0
2022-10-07T18:25:00.253Z,0.0
2022-10-07T18:30:00.274Z,0.0
2022-10-07T18:35:00.256Z,0.0
2022-10-07T18:40:00.258Z,0.0
2022-10-07T18:45:00.443Z,0.0
2022-10-07T18:50:00.284Z,0.0
2022-10-07T18:55:00.251Z,0.0
2022-10-07T19:00:00.336Z,0.0
2022-10-07T19:05:00.242Z,0.0
2022-10-07T19:10:00.243Z,0.0
2022-10-07T19:15:00.298Z,0.0
2022-10-07T19:20:00.270Z,0.0
2022-10-07T19:25:00.251Z,0.0
2022-10-07T19:30:00.273Z,0.0
2022-10-07T19:35:00.251Z,0.0
2022-10-07T19:40:00.291Z,0.0
2022-10-07T19:45:00.267Z,0.0
2022-10-07T19:50:00.252Z,0.0
2022-10-07T19:55:00.282Z,0.0
2022-10-07T20:05:00.260Z,0.0
2022-10-07T20:10:00.282Z,0.0
2022-10-07T20:15:00.339Z,0.0
2022-10-07T20:20:00.599Z,0.0
2022-10-07T20:25:00.228Z,0.0
2022-10-07T20:30:00.464Z,0.0
2022-10-07T20:35:00.246Z,0.0
2022-10-07T20:40:00.260Z,0.0
2022-10-07T20:45:00.283Z,0.0
2022-10-07T20:50:00.319Z,0.0
2022-10-07T20:55:00.287Z,0.0
2022-10-07T21:00:00.262Z,0.0
2022-10-07T21:05:00.251Z,0.0
2022-10-07T21:10:00.271Z,0.0
2022-10-07T21:15:00.229Z,0.0
2022-10-07T21:20:00.264Z,0.0
2022-10-07T21:25:00.239Z,0.0
2022-10-07T21:30:00.347Z,0.0
2022-10-07T21:35:00.256Z,0.0
2022-10-07T21:40:00.260Z,0.0
2022-10-07T21:45:00.286Z,0.0
2022-10-07T21:50:00.264Z,0.0
2022-10-07T21:55:00.257Z,0.0
2022-10-07T22:00:00.318Z,0.0
2022-10-07T22:05:00.263Z,0.0
2022-10-07T22:10:00.272Z,0.0
2022-10-07T22:15:00.332Z,0.0
2022-10-07T22:20:00.258Z,0.0
2022-10-07T22:25:00.292Z,0.0
2022-10-07T22:30:00.299Z,0.0
2022-10-07T22:35:00.263Z,0.0
2022-10-07T22:40:00.355Z,0.0
2022-10-07T22:45:00.272Z,0.0
2022-10-07T22:50:00.270Z,0.0
2022-10-07T22:55:00.245Z,0.0
2022-10-07T23:00:00.291Z,0.0
2022-10-07T23:05:00.254Z,0.0
2022-10-07T23:10:00.241Z,0.1
2022-10-07T23:15:00.254Z,0.0
2022-10-07T23:20:00.295Z,0.0
2022-10-07T23:25:00.213Z,0.0
2022-10-07T23:30:00.302Z,0.0
2022-10-07T23:35:00.247Z,0.0
2022-10-07T23:40:00.265Z,0.0
2022-10-07T23:45:00.274Z,0.0
2022-10-07T23:50:00.295Z,0.0
2022-10-07T23:55:00.284Z,0.0
